Aeroporto :
LOGIN :

Iscrizione | Disclaimer

   EN    FR    IT 

 










Sommario :    VFR   VFR Marginale   IFR   IFR Intensivo   IFR Molto Intensivo
Visibilità : 
Base nubi : 
>= 8 km
>= 3000ft
5 / 8 km
1000 / 3000 ft
1500m / 5 km
500 / 1000 ft
800 / 1500m
200 / 500 ft
< 800m
< 200 ft
Simboli :   Temporali  Nebbia  Neve Forte  Precipitazioni Forti  Vento > 20 kt
SIGMETs :   Varie  Temporali  Ghiacco  Turbolenza  Onda orograficha  Ceneri Vulcaniche






- Altitudine del aeroporto : 63 ft
- Codice IATA : BZM


EHWO - Woensdrecht Airbase

ULTIMO METAR :
  • 200425Z AUTO 25001KT 6000 BR OVC130 M02/M02 Q1047 WHT

METARs OBSOLETI :
  • 200415Z AUTO 25001KT 7000 BR OVC140 M02/M02 Q1047 WHT
  • 200355Z AUTO 00000KT 2800 BR OVC140 M02/M02 Q1047 YLO
  • 200343Z AUTO 00000KT 4300 BR OVC140 M02/M02 Q1047 GRN
  • 200333Z AUTO 00000KT 0900 FZFG OVC140 M02/M02 Q1047 AMB
  • 200311Z AUTO 25001KT 0900 FZFG BKN150 M02/M03 Q1047 AMB
  • 200302Z AUTO 00000KT 3800 BR NCD M02/M02 Q1047 GRN
  • 200246Z AUTO 25001KT 5000 BR NCD M02/M02 Q1047 WHT
  • 200242Z AUTO 25001KT 2200 BR NCD M02/M03 Q1047 YLO
  • 200229Z AUTO 00000KT 1300 BR SCT240 M02/M02 Q1047 AMB
  • 200211Z AUTO 25001KT 2800 BR FEW240 M03/M03 Q1047 YLO
  • 200203Z AUTO 25001KT 7000 BR NCD M02/M03 Q1047 WHT
  • 200144Z AUTO 00000KT 2300 BR NCD M02/M02 Q1047 YLO

Previsioni scadute.



MetMap, La meteo Aeronautica in un colpo d'occhio ! - Copyright ORBIFLY Dicembre 2007 - Disclaimer

ORBIFLY MET'MAP TEAM :

Programmazione e sviluppo : Alexandra Zaïnal
Concezione : Baudouin d'Aumeries
Aiuto per la programmazione : Marc-Olivier Méhu
Supporto tecnico e logistico : Manuel Goepfert
Aiuto per la traduzione : Arnaldo La Scala

Contatto : metmap@orbifly.com




FONTI E CREDITI :

   NOAA